Time;durP1;ratioP1;P1;durP2;ratioP2;P2;SDS_P1;SDS_P2;PMS_P1;PMS_P2;Temp;Humidity;BMP_temperature;BMP_pressure;BME280_temperature;BME280_humidity;BME280_pressure;Samples;Min_cycle;Max_cycle;Signal;HPM_P1;HPM_P2
2022/12/13 00:01:33;;;;;;;55.20;26.60;;;-3.80;99.90;;;;;;5048115;28;20404;-41
2022/12/13 00:04:01;;;;;;;60.10;27.40;;;-3.80;99.90;;;;;;5049212;28;20045;-36
2022/12/13 00:06:29;;;;;;;52.33;25.83;;;-3.70;99.90;;;;;;5048771;28;20099;-38
2022/12/13 00:08:56;;;;;;;56.22;27.27;;;-3.80;99.90;;;;;;5048096;28;20053;-40
2022/12/13 00:11:23;;;;;;;59.70;29.60;;;-3.80;99.90;;;;;;5052328;28;20057;-40
2022/12/13 00:13:51;;;;;;;65.50;28.77;;;-3.80;99.90;;;;;;5050080;28;20049;-40
2022/12/13 00:16:21;;;;;;;56.08;27.58;;;-3.80;99.90;;;;;;5049762;28;20106;-40
2022/12/13 00:18:48;;;;;;;62.30;28.35;;;-3.80;99.90;;;;;;5050475;28;20060;-39
2022/12/13 00:21:17;;;;;;;53.55;24.48;;;-3.80;99.90;;;;;;5049579;28;20049;-40
2022/12/13 00:23:43;;;;;;;62.95;27.85;;;-3.90;99.90;;;;;;5050808;28;20107;-37
2022/12/13 00:26:14;;;;;;;49.65;25.45;;;-3.80;99.90;;;;;;5048562;28;20060;-41
2022/12/13 00:28:41;;;;;;;52.13;25.45;;;-3.80;99.90;;;;;;5049369;28;20053;-41
2022/12/13 00:31:09;;;;;;;60.08;28.55;;;-3.90;99.90;;;;;;5049576;28;20095;-39
2022/12/13 00:33:37;;;;;;;56.15;26.10;;;-3.90;99.90;;;;;;5050890;28;20049;-40
2022/12/13 00:36:05;;;;;;;54.10;26.50;;;-3.90;99.90;;;;;;5048148;28;20107;-40
2022/12/13 00:38:31;;;;;;;55.20;27.48;;;-3.90;99.90;;;;;;5050328;28;20585;-40
2022/12/13 00:40:58;;;;;;;54.47;26.33;;;-3.90;99.90;;;;;;5050854;28;20095;-40
2022/12/13 00:43:25;;;;;;;50.55;24.48;;;-4.00;99.90;;;;;;5049784;28;20053;-40
2022/12/13 00:45:52;;;;;;;52.95;24.90;;;-3.90;99.90;;;;;;5049746;28;20049;-36
2022/12/13 00:48:20;;;;;;;52.83;26.02;;;-4.00;99.90;;;;;;5055744;28;20110;-41
2022/12/13 00:50:47;;;;;;;50.63;24.00;;;-4.00;99.90;;;;;;5054152;28;20049;-41
2022/12/13 00:53:14;;;;;;;48.92;23.38;;;-3.90;99.90;;;;;;5050409;28;20076;-40
2022/12/13 00:55:41;;;;;;;59.30;27.00;;;-4.00;99.90;;;;;;5052115;28;20106;-40
2022/12/13 00:58:08;;;;;;;53.45;24.80;;;-4.00;99.90;;;;;;5054596;28;20045;-40
2022/12/13 01:00:34;;;;;;;47.95;23.13;;;-4.00;99.90;;;;;;5054661;28;20057;-41
2022/12/13 01:03:19;;;;;;;54.75;24.42;;;-4.00;99.90;;;;;;5053372;28;20053;-40
2022/12/13 01:05:47;;;;;;;48.70;24.25;;;-4.00;99.90;;;;;;5053729;28;20128;-36
2022/12/13 01:08:14;;;;;;;53.70;25.92;;;-4.00;99.90;;;;;;5050264;28;20059;-40
2022/12/13 01:10:43;;;;;;;50.88;24.75;;;-4.00;99.90;;;;;;5054327;28;20049;-40
2022/12/13 01:13:10;;;;;;;53.15;24.10;;;-4.00;99.90;;;;;;5054508;28;20083;-40
2022/12/13 01:15:40;;;;;;;49.85;25.55;;;-4.00;99.90;;;;;;5053856;28;20431;-41
2022/12/13 01:18:07;;;;;;;51.00;24.95;;;-4.00;99.90;;;;;;5051354;28;20044;-40
2022/12/13 01:20:34;;;;;;;45.03;22.73;;;-4.00;99.90;;;;;;5054401;28;20136;-41
2022/12/13 01:23:02;;;;;;;42.60;22.75;;;-4.00;99.90;;;;;;5054124;28;20090;-40
2022/12/13 01:25:29;;;;;;;49.08;23.92;;;-4.00;99.90;;;;;;5053994;28;20451;-40
2022/12/13 01:27:56;;;;;;;44.38;21.60;;;-4.00;99.90;;;;;;5049956;28;20142;-39
2022/12/13 01:30:23;;;;;;;48.28;22.77;;;-4.10;99.90;;;;;;5053454;28;20049;-40
2022/12/13 01:32:50;;;;;;;47.65;23.42;;;-4.10;99.90;;;;;;5049856;28;20378;-41
2022/12/13 01:35:17;;;;;;;46.75;23.10;;;-4.10;99.90;;;;;;5051254;28;20057;-41
2022/12/13 01:37:43;;;;;;;49.58;22.83;;;-4.10;99.90;;;;;;5053385;28;20049;-38
2022/12/13 01:40:13;;;;;;;43.35;21.85;;;-4.20;99.90;;;;;;5051998;28;20122;-39
2022/12/13 01:42:39;;;;;;;48.53;24.63;;;-4.20;99.90;;;;;;5053107;28;20114;-37
2022/12/13 01:45:13;;;;;;;49.88;25.17;;;-4.20;99.90;;;;;;5049866;28;20382;-40
2022/12/13 01:47:40;;;;;;;45.20;22.17;;;-4.20;99.90;;;;;;5054062;28;20053;-40
2022/12/13 01:50:09;;;;;;;44.40;22.40;;;-4.20;99.90;;;;;;5053654;28;20443;-40
2022/12/13 01:52:36;;;;;;;41.05;20.13;;;-4.30;99.90;;;;;;5053565;28;21398;-40
2022/12/13 01:55:04;;;;;;;41.55;21.65;;;-4.30;99.90;;;;;;5051198;28;20041;-38
2022/12/13 01:57:32;;;;;;;41.15;19.95;;;-4.30;99.90;;;;;;5052235;28;20045;-41
2022/12/13 01:59:59;;;;;;;47.33;21.50;;;-4.30;99.90;;;;;;5051144;28;20402;-42
2022/12/13 02:02:26;;;;;;;45.92;23.15;;;-4.30;99.90;;;;;;5053565;28;20056;-41
2022/12/13 02:04:54;;;;;;;53.70;24.88;;;-4.30;99.90;;;;;;5052696;28;20470;-41
2022/12/13 02:07:23;;;;;;;41.90;22.05;;;-4.30;99.90;;;;;;5053251;28;20084;-40
2022/12/13 02:09:51;;;;;;;45.15;23.27;;;-4.40;99.90;;;;;;5053227;28;20566;-39
2022/12/13 02:12:18;;;;;;;44.30;20.13;;;-4.30;99.90;;;;;;5053789;28;20048;-40
2022/12/13 02:14:46;;;;;;;45.53;21.33;;;-4.40;99.90;;;;;;5050830;28;20439;-39
2022/12/13 02:17:16;;;;;;;40.58;21.20;;;-4.40;99.90;;;;;;5052630;28;20132;-39
2022/12/13 02:20:19;;;;;;;45.50;22.92;;;-4.40;99.90;;;;;;5052415;28;20061;-39
2022/12/13 02:22:56;;;;;;;47.03;23.55;;;-4.40;99.90;;;;;;5053211;28;20094;-38
2022/12/13 02:25:35;;;;;;;45.78;21.77;;;-4.40;99.90;;;;;;5047822;28;20114;-40
2022/12/13 02:28:12;;;;;;;44.72;22.10;;;-4.50;99.90;;;;;;5052134;28;20106;-38
2022/12/13 02:30:41;;;;;;;45.47;24.30;;;-4.40;99.90;;;;;;5043810;28;20053;-38
2022/12/13 02:33:35;;;;;;;45.47;22.23;;;-4.50;99.90;;;;;;5052379;28;20114;-41
2022/12/13 02:36:07;;;;;;;47.00;22.08;;;-4.50;99.90;;;;;;5032261;28;20094;-41
2022/12/13 02:38:36;;;;;;;45.90;22.40;;;-4.50;99.90;;;;;;5052956;28;20053;-37
2022/12/13 02:41:06;;;;;;;45.30;21.85;;;-4.50;99.90;;;;;;5050652;28;20080;-40
2022/12/13 02:43:35;;;;;;;43.72;22.00;;;-4.50;99.90;;;;;;5052641;28;20048;-35
2022/12/13 02:46:04;;;;;;;48.67;22.63;;;-4.60;99.90;;;;;;5047690;28;20444;-41
2022/12/13 02:48:34;;;;;;;42.20;21.77;;;-4.50;99.90;;;;;;5053312;28;20122;-38
2022/12/13 02:51:01;;;;;;;42.88;22.60;;;-4.60;99.90;;;;;;5051391;28;20095;-40
2022/12/13 02:53:27;;;;;;;42.47;21.48;;;-4.60;99.90;;;;;;5050242;28;20049;-40
2022/12/13 02:55:54;;;;;;;48.35;22.63;;;-4.60;99.90;;;;;;5051261;28;20488;-40
2022/12/13 02:58:23;;;;;;;43.33;21.65;;;-4.60;99.90;;;;;;5052840;28;20053;-37
2022/12/13 03:00:53;;;;;;;43.20;21.60;;;-4.60;99.90;;;;;;5051939;28;20107;-40
2022/12/13 03:03:26;;;;;;;45.88;22.80;;;-4.60;99.90;;;;;;5050156;28;20075;-41
2022/12/13 03:08:47;;;;;;;45.65;22.20;;;-4.70;99.90;;;;;;5049595;28;20449;-41
2022/12/13 03:11:15;;;;;;;44.55;22.73;;;-4.60;99.90;;;;;;5032655;28;20061;-41
2022/12/13 03:13:46;;;;;;;44.03;21.15;;;-4.60;99.90;;;;;;5044910;28;20053;-39
2022/12/13 03:16:19;;;;;;;41.92;21.60;;;-4.60;99.90;;;;;;5052055;28;20064;-40
2022/12/13 03:18:47;;;;;;;41.67;19.50;;;-4.70;99.90;;;;;;5050441;28;20053;-38
2022/12/13 03:21:14;;;;;;;42.50;20.45;;;-4.70;99.90;;;;;;5049344;28;20386;-41
2022/12/13 03:23:41;;;;;;;43.13;21.58;;;-4.70;99.90;;;;;;5050524;28;20080;-40
2022/12/13 03:26:11;;;;;;;48.63;22.65;;;-4.70;99.90;;;;;;5050426;28;20101;-40
2022/12/13 03:28:38;;;;;;;39.92;21.48;;;-4.70;99.90;;;;;;5050458;28;20052;-40
2022/12/13 03:31:05;;;;;;;46.10;23.00;;;-4.70;99.90;;;;;;5049574;28;20192;-40
2022/12/13 03:33:32;;;;;;;46.03;21.52;;;-4.70;99.90;;;;;;5049765;28;20052;-39
2022/12/13 03:36:00;;;;;;;37.75;19.73;;;-4.70;99.90;;;;;;5051185;28;20045;-40
2022/12/13 03:38:27;;;;;;;40.05;20.48;;;-4.70;99.90;;;;;;5032121;28;20295;-40
2022/12/13 03:40:56;;;;;;;44.97;22.65;;;-4.70;99.90;;;;;;5047861;28;20053;-40
2022/12/13 03:43:22;;;;;;;42.28;21.25;;;-4.80;99.90;;;;;;5051737;28;20053;-40
2022/12/13 03:45:50;;;;;;;39.05;19.95;;;-4.80;99.90;;;;;;5051082;28;20045;-40
2022/12/13 03:48:17;;;;;;;45.10;21.92;;;-4.80;99.90;;;;;;5050729;28;20053;-40
2022/12/13 03:50:43;;;;;;;42.78;21.35;;;-4.80;99.90;;;;;;5050746;28;20134;-40
2022/12/13 03:53:12;;;;;;;42.67;21.30;;;-4.90;99.90;;;;;;5051538;28;20057;-39
2022/12/13 03:55:38;;;;;;;41.65;21.15;;;-4.80;99.90;;;;;;5051374;28;20134;-40
2022/12/13 03:58:05;;;;;;;50.78;24.52;;;-4.80;99.90;;;;;;5050425;28;20053;-39
2022/12/13 04:00:32;;;;;;;59.30;24.75;;;-4.80;99.90;;;;;;5048869;28;20061;-40
2022/12/13 04:02:59;;;;;;;45.47;21.75;;;-4.90;99.90;;;;;;5052371;28;20638;-39
2022/12/13 04:05:25;;;;;;;49.08;25.17;;;-4.90;99.90;;;;;;5051567;28;20090;-40
2022/12/13 04:07:52;;;;;;;50.60;24.38;;;-4.90;99.90;;;;;;5050691;28;20447;-40
2022/12/13 04:10:20;;;;;;;46.30;23.17;;;-4.90;99.90;;;;;;5048034;28;20052;-40
2022/12/13 04:15:31;;;;;;;41.30;20.52;;;-4.90;99.90;;;;;;5049912;28;20052;-40
2022/12/13 04:17:58;;;;;;;42.78;21.30;;;-5.00;99.90;;;;;;5051690;28;20045;-39
2022/12/13 04:20:25;;;;;;;44.25;22.13;;;-4.90;99.90;;;;;;5049065;28;20098;-40
2022/12/13 04:22:52;;;;;;;44.75;22.17;;;-5.00;99.90;;;;;;5048601;28;20114;-41
2022/12/13 04:25:20;;;;;;;44.13;22.08;;;-5.00;99.90;;;;;;5050186;28;20048;-40
2022/12/13 04:27:47;;;;;;;40.35;20.58;;;-5.00;99.90;;;;;;5051259;28;20053;-40
2022/12/13 04:30:13;;;;;;;41.80;21.15;;;-5.00;99.90;;;;;;5048959;28;20053;-42
2022/12/13 04:32:40;;;;;;;46.53;21.42;;;-5.00;99.90;;;;;;5049459;28;20497;-40
2022/12/13 04:35:07;;;;;;;43.03;20.67;;;-5.00;99.90;;;;;;5051475;28;20080;-38
2022/12/13 04:37:34;;;;;;;42.95;20.55;;;-5.00;99.90;;;;;;5050052;28;20064;-40
2022/12/13 04:40:01;;;;;;;45.70;23.58;;;-5.00;99.90;;;;;;5050413;28;20102;-38
2022/12/13 04:42:30;;;;;;;48.72;23.17;;;-5.00;99.90;;;;;;5051054;28;20076;-40
2022/12/13 04:44:57;;;;;;;50.47;24.20;;;-5.00;99.90;;;;;;5049745;28;20071;-39
2022/12/13 04:47:23;;;;;;;49.63;22.95;;;-5.10;99.90;;;;;;5049994;28;20512;-40
2022/12/13 04:49:50;;;;;;;46.25;22.75;;;-5.10;99.90;;;;;;5048544;28;20049;-39
2022/12/13 04:52:17;;;;;;;45.08;22.20;;;-5.10;99.90;;;;;;5049174;28;20053;-40
2022/12/13 04:54:44;;;;;;;49.40;23.73;;;-5.10;99.90;;;;;;5048699;28;20750;-40
2022/12/13 04:57:11;;;;;;;42.90;22.45;;;-5.10;99.90;;;;;;5048437;28;20528;-40
2022/12/13 04:59:39;;;;;;;44.72;21.15;;;-5.10;99.90;;;;;;5048319;28;20671;-40
2022/12/13 05:02:07;;;;;;;44.88;22.35;;;-5.10;99.90;;;;;;5046924;28;20107;-38
2022/12/13 05:04:33;;;;;;;52.45;24.73;;;-5.10;99.90;;;;;;5050079;28;20098;-39
2022/12/13 05:07:01;;;;;;;44.67;21.95;;;-5.10;99.90;;;;;;5050262;28;20107;-40
2022/12/13 05:09:27;;;;;;;46.08;23.33;;;-5.10;99.90;;;;;;5049266;28;20443;-38
2022/12/13 05:11:54;;;;;;;48.65;23.50;;;-5.10;99.90;;;;;;5049956;28;20106;-39
2022/12/13 05:14:21;;;;;;;51.05;24.42;;;-5.10;99.90;;;;;;5049665;28;20049;-41
2022/12/13 05:16:49;;;;;;;50.05;24.33;;;-5.10;99.90;;;;;;5049625;28;20071;-41
2022/12/13 05:19:16;;;;;;;46.22;22.90;;;-5.10;99.90;;;;;;5050927;28;20470;-40
2022/12/13 05:21:43;;;;;;;48.00;22.40;;;-5.10;99.90;;;;;;5044815;28;20147;-40
2022/12/13 05:24:10;;;;;;;47.60;23.38;;;-5.10;99.90;;;;;;5047521;28;20056;-40
2022/12/13 05:26:37;;;;;;;44.15;22.45;;;-5.10;99.90;;;;;;5050434;28;20060;-38
2022/12/13 05:29:03;;;;;;;52.38;23.45;;;-5.10;99.90;;;;;;5050455;28;20130;-40
2022/12/13 05:31:30;;;;;;;53.70;24.92;;;-5.10;99.90;;;;;;5048732;28;20417;-39
2022/12/13 05:33:58;;;;;;;59.92;27.08;;;-5.10;99.90;;;;;;5046893;28;20099;-40
2022/12/13 05:36:25;;;;;;;52.83;25.38;;;-5.10;99.90;;;;;;5053004;28;20051;-40
2022/12/13 05:38:52;;;;;;;56.08;26.35;;;-5.10;99.90;;;;;;5050542;28;20106;-40
2022/12/13 05:41:20;;;;;;;55.75;25.30;;;-5.10;99.90;;;;;;5050348;28;20098;-38
2022/12/13 05:43:47;;;;;;;55.10;27.23;;;-5.10;99.90;;;;;;5050345;28;20048;-39
2022/12/13 05:46:14;;;;;;;51.80;25.50;;;-5.10;99.90;;;;;;5054041;28;20056;-42
2022/12/13 05:48:40;;;;;;;47.70;24.88;;;-5.10;99.90;;;;;;5052672;28;20084;-40
2022/12/13 05:51:09;;;;;;;54.38;25.80;;;-5.10;99.90;;;;;;5052446;28;20052;-39
2022/12/13 05:53:36;;;;;;;57.55;27.30;;;-5.10;99.90;;;;;;5050727;28;20379;-39
2022/12/13 05:56:02;;;;;;;54.42;27.40;;;-5.10;99.90;;;;;;5049297;28;20045;-39
2022/12/13 05:58:29;;;;;;;55.80;28.52;;;-5.10;99.90;;;;;;5052288;28;20053;-39
2022/12/13 06:01:03;;;;;;;60.60;29.20;;;-5.10;99.90;;;;;;5049973;28;20068;-40
2022/12/13 06:03:30;;;;;;;58.13;28.52;;;-5.10;99.90;;;;;;5049449;28;20077;-39
2022/12/13 06:05:58;;;;;;;56.83;26.85;;;-5.00;99.90;;;;;;5050795;28;20071;-39
2022/12/13 06:08:26;;;;;;;66.60;29.67;;;-5.00;99.90;;;;;;5047048;28;20045;-40
2022/12/13 06:10:54;;;;;;;54.47;27.10;;;-5.00;99.90;;;;;;5049612;28;20052;-40
2022/12/13 06:13:21;;;;;;;56.22;26.58;;;-5.00;99.90;;;;;;5049544;28;20057;-39
2022/12/13 06:15:48;;;;;;;58.00;28.52;;;-5.00;99.90;;;;;;5049046;28;20045;-40
2022/12/13 06:18:15;;;;;;;61.65;30.23;;;-5.00;99.90;;;;;;5051659;28;20084;-40
2022/12/13 06:20:42;;;;;;;62.85;29.08;;;-5.00;99.90;;;;;;5048287;28;20382;-39
2022/12/13 06:23:08;;;;;;;55.80;26.70;;;-5.00;99.90;;;;;;5046761;28;20098;-40
2022/12/13 06:25:37;;;;;;;52.25;25.70;;;-5.00;99.90;;;;;;5045160;28;20052;-36
2022/12/13 06:28:04;;;;;;;57.88;28.35;;;-5.00;99.90;;;;;;5050495;28;20312;-39
2022/12/13 06:30:31;;;;;;;61.00;25.83;;;-5.00;99.90;;;;;;5049059;28;20041;-39
2022/12/13 06:32:58;;;;;;;54.30;25.58;;;-5.00;99.90;;;;;;5051664;28;20110;-38
2022/12/13 06:35:25;;;;;;;59.78;28.98;;;-5.00;99.90;;;;;;5051456;28;20115;-39
2022/12/13 06:37:52;;;;;;;58.63;29.08;;;-4.90;99.90;;;;;;5050069;28;20137;-35
2022/12/13 06:40:18;;;;;;;53.22;26.48;;;-5.10;99.90;;;;;;5045895;28;20131;-37
2022/12/13 06:42:47;;;;;;;49.55;25.15;;;-5.00;99.90;;;;;;5049130;28;20049;-38
2022/12/13 06:45:13;;;;;;;56.45;26.08;;;-5.10;99.90;;;;;;5046492;28;20080;-41
2022/12/13 06:47:40;;;;;;;53.45;26.42;;;-5.10;99.90;;;;;;5049259;28;20397;-40
2022/12/13 06:50:08;;;;;;;55.90;27.88;;;-5.10;99.90;;;;;;5050362;28;20041;-39
2022/12/13 06:52:35;;;;;;;55.80;25.80;;;-5.10;99.90;;;;;;5050250;28;20091;-37
2022/12/13 06:55:02;;;;;;;59.72;30.90;;;-5.10;99.90;;;;;;5049185;28;20100;-38
2022/12/13 06:57:28;;;;;;;59.83;27.45;;;-5.10;99.90;;;;;;5048855;28;20092;-34
2022/12/13 06:59:57;;;;;;;53.53;27.10;;;-5.10;99.90;;;;;;5064685;28;20103;-39
2022/12/13 07:02:24;;;;;;;57.70;26.73;;;-5.10;99.90;;;;;;5051268;28;20060;-40
2022/12/13 07:04:50;;;;;;;55.05;26.60;;;-5.10;99.90;;;;;;5049944;28;20048;-39
2022/12/13 07:07:17;;;;;;;62.83;29.77;;;-5.10;99.90;;;;;;5049271;28;20996;-39
2022/12/13 07:09:44;;;;;;;62.72;27.70;;;-5.10;99.90;;;;;;5051019;28;20102;-40
2022/12/13 07:12:11;;;;;;;61.80;29.15;;;-5.20;99.90;;;;;;5051087;28;20582;-38
2022/12/13 07:14:38;;;;;;;51.60;25.88;;;-5.20;99.90;;;;;;5049662;28;20419;-39
2022/12/13 07:17:06;;;;;;;57.22;25.95;;;-5.10;99.90;;;;;;5050290;28;20049;-39
2022/12/13 07:19:33;;;;;;;58.55;28.35;;;-5.20;99.90;;;;;;5050917;28;20079;-39
2022/12/13 07:21:59;;;;;;;55.92;25.20;;;-5.10;99.90;;;;;;5049215;28;20444;-39
2022/12/13 07:24:26;;;;;;;54.75;26.95;;;-5.20;99.90;;;;;;5049888;28;20052;-36
2022/12/13 07:26:53;;;;;;;57.00;30.15;;;-5.20;99.90;;;;;;5046436;28;20119;-39
2022/12/13 07:29:20;;;;;;;56.80;26.58;;;-5.10;99.90;;;;;;5046322;28;20136;-39
2022/12/13 07:31:47;;;;;;;68.88;28.70;;;-5.20;99.90;;;;;;5048157;28;20041;-40
2022/12/13 07:34:15;;;;;;;64.55;30.45;;;-5.20;99.90;;;;;;5049655;28;20084;-39
2022/12/13 07:40:08;;;;;;;57.47;28.23;;;-5.10;99.90;;;;;;5048153;28;20041;-41
2022/12/13 07:42:36;;;;;;;65.97;30.90;;;-5.20;99.90;;;;;;5046280;28;20053;-39
2022/12/13 07:45:03;;;;;;;74.25;32.88;;;-5.20;99.90;;;;;;5045120;28;20168;-40
2022/12/13 07:47:30;;;;;;;64.45;30.40;;;-5.20;99.90;;;;;;5049006;28;20458;-39
2022/12/13 07:49:58;;;;;;;70.35;32.45;;;-5.10;99.90;;;;;;5048976;28;20099;-41
2022/12/13 07:52:25;;;;;;;64.65;31.83;;;-5.10;99.90;;;;;;5046961;28;20061;-39
2022/12/13 07:54:54;;;;;;;70.72;31.23;;;-5.10;99.90;;;;;;5033316;28;20049;-39
2022/12/13 07:57:21;;;;;;;73.90;32.88;;;-5.00;99.90;;;;;;5046373;28;20357;-40
2022/12/13 07:59:48;;;;;;;75.90;32.80;;;-5.10;99.90;;;;;;5048294;28;20087;-40
2022/12/13 08:02:15;;;;;;;74.38;33.35;;;-5.00;99.90;;;;;;5046826;28;20060;-39
2022/12/13 08:04:42;;;;;;;80.32;33.55;;;-5.00;99.90;;;;;;5045304;28;20056;-41
2022/12/13 08:07:11;;;;;;;76.45;33.10;;;-4.90;99.90;;;;;;5047938;28;20049;-39
2022/12/13 08:09:37;;;;;;;103.93;38.22;;;-4.90;99.90;;;;;;5050816;28;20078;-39
2022/12/13 08:12:05;;;;;;;77.47;33.05;;;-5.00;99.90;;;;;;5050982;28;20064;-40
2022/12/13 08:14:32;;;;;;;80.38;34.13;;;-4.90;99.90;;;;;;5049305;28;20088;-39
2022/12/13 08:16:58;;;;;;;79.30;36.08;;;-4.90;99.90;;;;;;5047208;28;20497;-40
2022/12/13 08:19:25;;;;;;;99.60;37.53;;;-4.90;99.90;;;;;;5049298;28;20080;-41
2022/12/13 08:21:52;;;;;;;76.72;34.35;;;-4.80;99.90;;;;;;5031371;28;20053;-40
2022/12/13 08:24:20;;;;;;;102.05;38.30;;;-4.80;99.90;;;;;;5031233;28;20073;-41
2022/12/13 08:26:47;;;;;;;72.68;33.58;;;-4.80;99.90;;;;;;5041724;28;20103;-40
2022/12/13 08:29:14;;;;;;;84.22;36.83;;;-4.80;99.90;;;;;;5046704;28;20053;-40
2022/12/13 08:31:41;;;;;;;75.53;33.53;;;-4.70;99.90;;;;;;5050913;28;20053;-40
2022/12/13 08:34:08;;;;;;;83.95;34.88;;;-4.70;99.90;;;;;;5051653;28;20493;-40
2022/12/13 08:36:35;;;;;;;247.85;51.22;;;-4.70;99.90;;;;;;5050898;28;20064;-40
2022/12/13 08:39:04;;;;;;;120.47;44.63;;;-4.70;99.90;;;;;;5050966;28;20489;-40
2022/12/13 08:41:33;;;;;;;109.88;43.10;;;-4.60;99.90;;;;;;5048625;28;20045;-38
2022/12/13 08:43:59;;;;;;;96.68;40.17;;;-4.60;99.90;;;;;;5049611;28;20044;-41
2022/12/13 08:46:26;;;;;;;86.68;37.08;;;-4.50;99.90;;;;;;5048489;28;20454;-39
2022/12/13 08:48:53;;;;;;;78.55;34.22;;;-4.50;99.90;;;;;;5047051;28;20041;-41
2022/12/13 08:51:22;;;;;;;84.72;42.15;;;-4.40;99.90;;;;;;5048853;28;20049;-41
2022/12/13 08:53:49;;;;;;;88.20;42.97;;;-4.50;99.90;;;;;;5049704;28;20037;-37
2022/12/13 08:56:17;;;;;;;86.53;39.42;;;-4.40;99.90;;;;;;5047650;28;20089;-40
2022/12/13 08:58:49;;;;;;;88.03;38.97;;;-4.40;99.90;;;;;;5048904;28;20057;-40
2022/12/13 09:01:16;;;;;;;85.55;39.53;;;-4.30;99.90;;;;;;5046589;28;20051;-40
2022/12/13 09:03:43;;;;;;;88.13;38.10;;;-4.30;99.90;;;;;;5049670;28;20481;-41
2022/12/13 09:06:11;;;;;;;84.78;39.00;;;-4.20;99.90;;;;;;5047710;28;20114;-40
2022/12/13 09:08:38;;;;;;;89.75;40.97;;;-4.10;99.90;;;;;;5050121;28;20106;-40
2022/12/13 09:11:05;;;;;;;86.68;40.55;;;-4.10;99.90;;;;;;5052605;28;20056;-40
2022/12/13 09:13:36;;;;;;;90.90;41.35;;;-4.00;99.90;;;;;;5050446;28;20048;-42
2022/12/13 09:16:05;;;;;;;89.18;40.08;;;-3.90;99.90;;;;;;5050707;28;20041;-40
2022/12/13 09:18:32;;;;;;;83.82;38.53;;;-3.90;99.90;;;;;;5054165;28;20098;-38
2022/12/13 09:20:59;;;;;;;82.82;38.60;;;-3.80;99.90;;;;;;5053504;28;20056;-39
2022/12/13 09:23:26;;;;;;;79.57;37.65;;;-3.70;99.90;;;;;;5049804;28;20053;-40
2022/12/13 09:25:54;;;;;;;83.63;38.88;;;-3.80;99.90;;;;;;5051078;28;20141;-38
2022/12/13 09:28:21;;;;;;;93.47;40.03;;;-3.70;99.90;;;;;;5049198;28;20056;-37
2022/12/13 09:30:48;;;;;;;78.30;37.38;;;-3.60;99.90;;;;;;5053261;28;20045;-40
2022/12/13 09:33:16;;;;;;;80.80;38.58;;;-3.50;99.90;;;;;;5048929;28;20057;-41
2022/12/13 09:35:43;;;;;;;85.75;39.40;;;-3.40;99.90;;;;;;5051696;28;20402;-40
2022/12/13 09:38:10;;;;;;;90.38;42.05;;;-3.30;99.90;;;;;;5052411;28;20452;-40
2022/12/13 09:40:37;;;;;;;87.70;41.30;;;-3.30;99.90;;;;;;5052304;28;20049;-40
2022/12/13 09:43:04;;;;;;;91.30;41.25;;;-3.20;99.90;;;;;;5048968;28;20045;-39
2022/12/13 09:45:31;;;;;;;88.78;41.70;;;-3.10;99.90;;;;;;5050167;28;20102;-41
2022/12/13 09:47:58;;;;;;;82.78;40.70;;;-3.00;99.90;;;;;;5043580;28;20053;-39
2022/12/13 09:50:28;;;;;;;87.45;40.63;;;-2.90;99.90;;;;;;5052809;28;20068;-41
2022/12/13 09:52:55;;;;;;;81.85;37.85;;;-2.80;99.90;;;;;;5050423;28;20126;-41
2022/12/13 09:55:23;;;;;;;77.60;38.80;;;-2.70;99.90;;;;;;5048802;28;20111;-41
2022/12/13 09:57:50;;;;;;;81.32;40.67;;;-2.60;99.90;;;;;;5048883;28;20064;-40
2022/12/13 10:00:18;;;;;;;85.25;40.17;;;-2.60;99.90;;;;;;5052308;28;20458;-42
2022/12/13 10:02:46;;;;;;;83.03;40.42;;;-2.50;99.90;;;;;;5051749;28;20307;-40
2022/12/13 10:05:17;;;;;;;78.93;39.10;;;-2.40;99.90;;;;;;5051210;28;20087;-41
2022/12/13 10:07:45;;;;;;;77.97;39.03;;;-2.30;99.90;;;;;;5049858;28;20080;-41
2022/12/13 10:10:13;;;;;;;76.82;37.17;;;-2.30;99.90;;;;;;5050325;28;20132;-41
2022/12/13 10:12:40;;;;;;;73.90;35.72;;;-2.20;99.90;;;;;;5049078;28;20041;-39
2022/12/13 10:15:08;;;;;;;71.18;36.67;;;-2.10;99.90;;;;;;5048685;28;20457;-42
2022/12/13 10:17:37;;;;;;;78.22;38.10;;;-2.00;99.90;;;;;;5048788;28;20047;-39
2022/12/13 10:20:05;;;;;;;75.32;38.13;;;-1.90;99.90;;;;;;5044952;28;20053;-39
2022/12/13 10:22:32;;;;;;;79.70;38.92;;;-1.90;99.90;;;;;;5050890;28;20107;-38
2022/12/13 10:25:02;;;;;;;72.18;36.63;;;-1.80;99.90;;;;;;5048761;28;20049;-41
2022/12/13 10:27:30;;;;;;;82.22;38.42;;;-1.80;99.90;;;;;;5049719;28;20133;-40
2022/12/13 10:30:02;;;;;;;77.47;37.38;;;-1.70;99.90;;;;;;5045280;28;20052;-40
2022/12/13 10:32:28;;;;;;;;;;;-1.60;99.90;;;;;;5049961;28;20516;-42
2022/12/13 10:34:55;;;;;;;73.68;36.13;;;-1.50;99.90;;;;;;5051935;28;19974;-43
2022/12/13 10:37:27;;;;;;;81.45;36.75;;;-1.50;99.90;;;;;;5050266;28;20134;-41
2022/12/13 10:39:54;;;;;;;70.38;36.15;;;-1.40;99.90;;;;;;5046737;28;20053;-41
2022/12/13 10:42:22;;;;;;;83.18;39.90;;;-1.40;99.90;;;;;;5049343;28;20485;-41
2022/12/13 10:44:49;;;;;;;90.75;38.88;;;-1.40;99.90;;;;;;5048674;28;20095;-41
2022/12/13 10:47:17;;;;;;;69.57;34.85;;;-1.30;99.90;;;;;;5049330;28;20063;-41
2022/12/13 10:49:49;;;;;;;78.65;38.05;;;-1.30;99.90;;;;;;5050422;28;20057;-41
2022/12/13 10:52:25;;;;;;;67.10;36.95;;;-1.20;99.90;;;;;;5035139;28;20060;-40
2022/12/13 10:54:51;;;;;;;85.95;36.58;;;-1.10;99.90;;;;;;5052496;28;20452;-42
2022/12/13 10:57:19;;;;;;;76.80;36.85;;;-1.00;99.90;;;;;;5046873;28;20081;-39
2022/12/13 10:59:48;;;;;;;71.05;36.55;;;-1.00;99.90;;;;;;5046909;28;20056;-43
2022/12/13 11:02:32;;;;;;;69.00;35.50;;;-0.90;99.90;;;;;;5050722;28;20060;-40
2022/12/13 11:05:00;;;;;;;69.57;35.25;;;-0.80;99.90;;;;;;5046020;28;20510;-40
2022/12/13 11:07:28;;;;;;;74.07;36.03;;;-0.80;99.90;;;;;;5048021;28;20045;-40
2022/12/13 11:09:55;;;;;;;102.18;37.78;;;-0.80;99.90;;;;;;5048297;28;20081;-41
2022/12/13 11:12:23;;;;;;;63.60;33.08;;;-0.70;99.90;;;;;;5047580;28;20550;-42
2022/12/13 11:14:54;;;;;;;70.82;34.85;;;-0.70;99.90;;;;;;5049923;28;20048;-42
2022/12/13 11:17:21;;;;;;;111.40;35.90;;;-0.60;99.90;;;;;;5045561;28;20123;-43
2022/12/13 11:19:49;;;;;;;67.53;33.75;;;-0.50;99.90;;;;;;5050262;28;20477;-43
2022/12/13 11:22:19;;;;;;;66.97;35.55;;;-0.40;99.90;;;;;;5052101;28;20433;-42
2022/12/13 11:24:49;;;;;;;60.92;33.83;;;-0.40;99.90;;;;;;5047656;28;20536;-42
2022/12/13 11:27:28;;;;;;;64.80;34.80;;;-0.30;99.90;;;;;;5044880;28;20059;-42
2022/12/13 11:30:03;;;;;;;67.57;33.90;;;-0.10;99.90;;;;;;5050619;28;20052;-42
2022/12/13 11:32:37;;;;;;;64.03;34.40;;;-0.20;99.90;;;;;;5048359;28;20099;-42
2022/12/13 11:35:08;;;;;;;64.35;33.65;;;-0.20;99.90;;;;;;5049722;28;20106;-43
2022/12/13 11:37:39;;;;;;;64.53;34.05;;;-0.20;99.90;;;;;;5049365;28;20095;-41
2022/12/13 11:40:11;;;;;;;64.43;33.42;;;-0.10;99.90;;;;;;5049718;28;20106;-44
2022/12/13 11:42:38;;;;;;;;;;;0.00;99.90;;;;;;5049423;28;20389;-40
2022/12/13 11:45:11;;;;;;;69.05;34.20;;;0.00;99.90;;;;;;5047661;28;20388;-44
2022/12/13 11:47:43;;;;;;;60.22;33.53;;;0.00;99.90;;;;;;5038225;28;20493;-41
2022/12/13 11:50:14;;;;;;;61.78;33.33;;;0.10;99.90;;;;;;5048390;28;20052;-39
2022/12/13 11:52:44;;;;;;;63.45;33.30;;;0.10;99.90;;;;;;5047389;28;20333;-40
2022/12/13 11:55:15;;;;;;;56.17;31.33;;;0.20;99.90;;;;;;5049082;28;20360;-39
2022/12/13 11:57:44;;;;;;;62.08;32.58;;;0.30;99.90;;;;;;5048268;28;20064;-42
2022/12/13 12:00:31;;;;;;;60.17;33.28;;;0.30;99.90;;;;;;5048664;28;20091;-41
2022/12/13 12:03:01;;;;;;;58.97;32.60;;;0.30;99.90;;;;;;5038485;28;20585;-43
2022/12/13 12:05:30;;;;;;;57.00;30.88;;;0.30;99.90;;;;;;5049128;28;20563;-43
2022/12/13 12:07:59;;;;;;;59.47;32.45;;;0.40;99.90;;;;;;5046294;28;20053;-43
2022/12/13 12:10:29;;;;;;;52.67;30.95;;;0.40;99.90;;;;;;5049038;28;20081;-41
2022/12/13 12:12:56;;;;;;;54.70;30.50;;;0.40;99.90;;;;;;5047710;28;20041;-45
2022/12/13 12:15:26;;;;;;;53.55;29.77;;;0.50;99.90;;;;;;5049021;28;20080;-43
2022/12/13 12:17:53;;;;;;;54.72;30.95;;;0.50;99.90;;;;;;5049050;28;20045;-39
2022/12/13 12:20:26;;;;;;;53.00;30.98;;;0.50;99.90;;;;;;5048656;28;20048;-42
2022/12/13 12:22:58;;;;;;;54.45;31.83;;;0.50;99.90;;;;;;5044680;28;20111;-42
2022/12/13 12:25:27;;;;;;;56.72;31.27;;;0.60;99.90;;;;;;5047595;28;20076;-44
2022/12/13 12:28:00;;;;;;;55.42;29.88;;;0.60;99.90;;;;;;5049234;28;20045;-42
2022/12/13 12:30:34;;;;;;;52.65;31.55;;;0.60;99.90;;;;;;5047833;28;20053;-43
2022/12/13 12:33:04;;;;;;;52.83;30.83;;;0.60;99.90;;;;;;5047453;28;20057;-41
2022/12/13 12:35:59;;;;;;;58.00;31.27;;;0.60;99.90;;;;;;5049202;28;21368;-41
2022/12/13 12:38:57;;;;;;;50.97;30.83;;;0.60;99.90;;;;;;5044194;28;20045;-45
2022/12/13 12:41:28;;;;;;;57.22;29.55;;;0.60;99.90;;;;;;5020714;28;20049;-41
2022/12/13 12:44:00;;;;;;;55.72;30.58;;;0.70;99.90;;;;;;5054075;28;20053;-42